createdAt,value
2022-10-14T00:01:27.026Z,97220.44
2022-10-14T00:03:55.835Z,97221.94
2022-10-14T00:06:25.896Z,97230.53
2022-10-14T00:08:54.915Z,97223.84
2022-10-14T00:11:25.663Z,97226.13
2022-10-14T00:13:56.094Z,97218.53
2022-10-14T00:16:26.120Z,97219.13
2022-10-14T00:18:54.208Z,97216.31
2022-10-14T00:21:22.203Z,97217.34
2022-10-14T00:23:50.699Z,97216.53
2022-10-14T00:26:21.258Z,97217.34
2022-10-14T00:28:52.418Z,97217.81
2022-10-14T00:31:21.628Z,97215.13
2022-10-14T00:33:50.435Z,97221.31
2022-10-14T00:36:21.016Z,97218.63
2022-10-14T00:38:49.741Z,97221.31
2022-10-14T00:41:20.607Z,97225.31
2022-10-14T00:43:59.273Z,97223.41
2022-10-14T00:46:28.664Z,97217.72
2022-10-14T00:49:05.803Z,97210.13
2022-10-14T00:51:34.366Z,97213.31
2022-10-14T00:54:02.432Z,97211.72
2022-10-14T00:56:31.136Z,97217.09
2022-10-14T00:59:01.216Z,97220.41
2022-10-14T01:01:29.575Z,97214.53
2022-10-14T01:03:57.795Z,97213.31
2022-10-14T01:06:36.257Z,97213.78
2022-10-14T01:09:06.138Z,97209.94
2022-10-14T01:11:40.670Z,97208.50
2022-10-14T01:14:18.678Z,97212.69
2022-10-14T01:16:53.045Z,97217.50
2022-10-14T01:19:44.741Z,97215.28
2022-10-14T01:22:22.174Z,97216.88
2022-10-14T01:25:00.327Z,97207.50
2022-10-14T01:27:44.025Z,97214.28
2022-10-14T01:30:18.618Z,97224.50
2022-10-14T01:33:01.221Z,97209.41
2022-10-14T01:35:41.122Z,97213.19
2022-10-14T01:38:12.974Z,97205.59
2022-10-14T01:40:43.749Z,97205.28
2022-10-14T01:43:14.306Z,97200.69
2022-10-14T01:45:45.154Z,97198.00
2022-10-14T01:48:14.954Z,97194.50
2022-10-14T01:50:46.411Z,97194.50
2022-10-14T01:53:17.885Z,97200.69
2022-10-14T01:55:47.840Z,97195.28
2022-10-14T01:58:18.099Z,97198.50
2022-10-14T02:00:48.796Z,97198.50
2022-10-14T02:03:16.803Z,97196.91
2022-10-14T02:05:48.423Z,97193.69
2022-10-14T02:08:22.234Z,97189.44
2022-10-14T02:11:02.705Z,97186.72
2022-10-14T02:13:40.687Z,97182.13
2022-10-14T02:16:15.843Z,97187.53
2022-10-14T02:18:50.190Z,97188.31
2022-10-14T02:21:22.387Z,97186.72
2022-10-14T02:24:11.977Z,97189.91
2022-10-14T02:26:40.664Z,97191.00
2022-10-14T02:29:08.871Z,97190.53
2022-10-14T02:31:39.643Z,97192.13
2022-10-14T02:34:11.242Z,97194.50
2022-10-14T02:36:41.756Z,97199.09
2022-10-14T02:39:13.204Z,97192.13
2022-10-14T02:41:41.748Z,97193.69
2022-10-14T02:44:09.747Z,97204.47
2022-10-14T02:46:40.079Z,97196.41
2022-10-14T02:49:10.559Z,97200.69
2022-10-14T02:51:38.885Z,97202.13
2022-10-14T02:54:06.927Z,97200.22
2022-10-14T02:56:35.479Z,97197.53
2022-10-14T02:59:03.480Z,97205.59
2022-10-14T03:01:36.554Z,97197.03
2022-10-14T03:04:08.321Z,97207.31
2022-10-14T03:06:37.255Z,97203.50
2022-10-14T03:09:05.741Z,97201.09
2022-10-14T03:11:36.984Z,97205.69
2022-10-14T03:14:08.455Z,97204.72
2022-10-14T03:16:36.517Z,97204.25
2022-10-14T03:19:04.792Z,97205.94
2022-10-14T03:21:49.109Z,97205.47
2022-10-14T03:24:20.712Z,97201.16
2022-10-14T03:26:56.954Z,97198.94
2022-10-14T03:29:27.089Z,97200.06
2022-10-14T03:32:06.719Z,97196.88
2022-10-14T03:34:54.672Z,97193.38
2022-10-14T03:37:26.772Z,97206.56
2022-10-14T03:39:57.351Z,97195.78
2022-10-14T03:42:25.897Z,97193.06
2022-10-14T03:44:54.005Z,97193.38
2022-10-14T03:47:42.212Z,97198.94
2022-10-14T03:50:11.419Z,97198.94
2022-10-14T03:52:52.145Z,97205.63
2022-10-14T03:55:29.901Z,97201.03
2022-10-14T03:57:58.372Z,97203.75
2022-10-14T04:00:28.069Z,97211.03
2022-10-14T04:03:10.961Z,97206.44
2022-10-14T04:05:41.422Z,97198.34
2022-10-14T04:08:15.388Z,97197.56
2022-10-14T04:10:53.333Z,97192.97
2022-10-14T04:13:21.776Z,97182.19
2022-10-14T04:15:49.894Z,97180.28
2022-10-14T04:18:22.283Z,97183.44
2022-10-14T04:20:52.326Z,97176.16
2022-10-14T04:23:25.195Z,97178.84
2022-10-14T04:25:57.629Z,97174.25
2022-10-14T04:28:26.433Z,97172.38
2022-10-14T04:31:01.250Z,97178.06
2022-10-14T04:33:38.434Z,97177.75
2022-10-14T04:36:15.639Z,97164.78
2022-10-14T04:38:45.034Z,97171.78
2022-10-14T04:41:13.176Z,97166.97
2022-10-14T04:43:46.949Z,97159.97
2022-10-14T04:46:37.592Z,97155.22
2022-10-14T04:49:06.092Z,97152.53
2022-10-14T04:51:41.463Z,97150.13
2022-10-14T04:54:33.605Z,97152.03
2022-10-14T04:57:01.976Z,97146.63
2022-10-14T04:59:30.739Z,97142.34
2022-10-14T05:02:10.842Z,97144.56
2022-10-14T05:04:51.304Z,97134.06
2022-10-14T05:07:19.468Z,97141.34
2022-10-14T05:09:56.697Z,97142.44
2022-10-14T05:12:41.101Z,97140.84
2022-10-14T05:15:11.015Z,97138.91
2022-10-14T05:17:46.223Z,97138.91
2022-10-14T05:20:17.432Z,97137.81
2022-10-14T05:22:49.193Z,97132.41
2022-10-14T05:25:18.736Z,97131.91
2022-10-14T05:27:46.867Z,97134.09
2022-10-14T05:30:15.239Z,97138.41
2022-10-14T05:32:48.004Z,97145.91
2022-10-14T05:35:29.260Z,97149.03
2022-10-14T05:38:08.218Z,97142.81
2022-10-14T05:40:41.856Z,97143.81
2022-10-14T05:43:10.162Z,97140.69
2022-10-14T05:45:42.175Z,97140.13
2022-10-14T05:48:10.181Z,97147.09
2022-10-14T05:50:38.152Z,97135.19
2022-10-14T05:53:11.556Z,97138.56
2022-10-14T05:55:45.242Z,97137.81
2022-10-14T05:58:13.599Z,97140.97
2022-10-14T06:00:43.994Z,97142.28
2022-10-14T06:03:16.791Z,97143.06
2022-10-14T06:05:46.318Z,97146.06
2022-10-14T06:08:14.330Z,97151.88
2022-10-14T06:10:42.465Z,97149.19
2022-10-14T06:13:11.848Z,97146.88
2022-10-14T06:15:41.531Z,97145.28
2022-10-14T06:18:10.037Z,97146.88
2022-10-14T06:20:39.195Z,97143.25
2022-10-14T06:23:07.226Z,97139.28
2022-10-14T06:25:35.167Z,97140.25
2022-10-14T06:28:04.193Z,97136.66
2022-10-14T06:30:34.128Z,97136.34
2022-10-14T06:33:02.086Z,97139.53
2022-10-14T06:35:30.003Z,97140.03
2022-10-14T06:37:58.620Z,97144.00
2022-10-14T06:40:26.596Z,97142.59
2022-10-14T06:42:54.629Z,97145.78
2022-10-14T06:45:22.627Z,97144.41
2022-10-14T06:47:52.257Z,97146.75
2022-10-14T06:50:20.703Z,97142.97
2022-10-14T06:52:49.195Z,97145.06
2022-10-14T06:55:18.085Z,97150.47
2022-10-14T06:57:46.391Z,97151.72
2022-10-14T07:00:15.372Z,97155.72
2022-10-14T07:02:44.292Z,97158.91
2022-10-14T07:05:13.752Z,97157.81
2022-10-14T07:07:41.868Z,97152.91
2022-10-14T07:10:10.755Z,97154.50
2022-10-14T07:12:38.820Z,97144.19
2022-10-14T07:15:07.973Z,97137.69
2022-10-14T07:17:35.995Z,97143.09
2022-10-14T07:20:04.202Z,97144.69
2022-10-14T07:22:38.995Z,97140.91
2022-10-14T07:25:08.553Z,97129.47
2022-10-14T07:27:36.560Z,97132.66
2022-10-14T07:30:05.937Z,97130.47
2022-10-14T07:32:36.877Z,97127.28
2022-10-14T07:35:05.292Z,97129.69
2022-10-14T07:37:34.664Z,97128.25
2022-10-14T07:40:02.687Z,97128.47
2022-10-14T07:42:31.973Z,97127.53
2022-10-14T07:44:59.983Z,97130.25
2022-10-14T07:47:27.984Z,97129.59
2022-10-14T07:49:56.003Z,97125.38
2022-10-14T07:52:23.959Z,97128.88
2022-10-14T07:54:53.317Z,97140.31
2022-10-14T07:57:23.436Z,97135.13
2022-10-14T07:59:52.982Z,97133.38
2022-10-14T08:02:21.397Z,97140.56
2022-10-14T08:04:53.209Z,97132.66
2022-10-14T08:07:21.368Z,97124.41
2022-10-14T08:09:49.703Z,97119.97
2022-10-14T08:12:19.282Z,97123.63
2022-10-14T08:14:47.551Z,97125.72
2022-10-14T08:17:15.525Z,97132.09
2022-10-14T08:19:43.713Z,97133.03
2022-10-14T08:22:11.713Z,97135.63
2022-10-14T08:24:39.664Z,97130.88
2022-10-14T08:27:08.029Z,97130.38
2022-10-14T08:29:37.403Z,97128.78
2022-10-14T08:32:05.923Z,97127.72
2022-10-14T08:34:33.961Z,97127.09
2022-10-14T08:37:03.208Z,97128.22
2022-10-14T08:39:31.219Z,97127.28
2022-10-14T08:42:12.606Z,97128.72
2022-10-14T08:44:44.948Z,97130.97
2022-10-14T08:47:15.582Z,97122.38
2022-10-14T08:49:53.268Z,97119.50
2022-10-14T08:52:24.625Z,97123.34
2022-10-14T08:54:56.980Z,97121.31
2022-10-14T08:57:28.025Z,97122.09
2022-10-14T08:59:57.421Z,97127.16
2022-10-14T09:02:36.301Z,97115.72
2022-10-14T09:05:04.987Z,97106.84
2022-10-14T09:07:34.611Z,97105.41
2022-10-14T09:10:06.496Z,97106.06
2022-10-14T09:12:36.152Z,97106.06
2022-10-14T09:15:11.144Z,97110.19
2022-10-14T09:17:44.868Z,97112.25
2022-10-14T09:20:19.479Z,97111.78
2022-10-14T09:22:55.510Z,97121.50
2022-10-14T09:25:23.509Z,97111.63
2022-10-14T09:27:51.599Z,97105.88
2022-10-14T09:30:20.996Z,97113.22
2022-10-14T09:32:51.514Z,97117.97
2022-10-14T09:35:24.383Z,97114.94
2022-10-14T09:37:53.126Z,97107.63
2022-10-14T09:40:26.702Z,97106.66
2022-10-14T09:42:59.293Z,97106.66
2022-10-14T09:45:30.970Z,97105.38
2022-10-14T09:48:03.965Z,97099.31
2022-10-14T09:50:36.508Z,97097.41
2022-10-14T09:53:10.720Z,97094.22
2022-10-14T09:55:40.863Z,97089.59
2022-10-14T09:58:14.968Z,97090.53
2022-10-14T10:00:44.478Z,97089.16
2022-10-14T10:03:25.886Z,97088.63
2022-10-14T10:06:02.704Z,97086.72
2022-10-14T10:08:31.063Z,97090.66
2022-10-14T10:11:05.496Z,97082.16
2022-10-14T10:13:39.530Z,97082.50
2022-10-14T10:16:18.649Z,97086.97
2022-10-14T10:18:46.605Z,97086.16
2022-10-14T10:21:19.976Z,97079.50
2022-10-14T10:23:52.962Z,97080.44
2022-10-14T10:26:25.845Z,97072.25
2022-10-14T10:28:57.059Z,97066.72
2022-10-14T10:31:55.749Z,97067.75
2022-10-14T10:34:44.127Z,97065.25
2022-10-14T10:37:25.167Z,97056.16
2022-10-14T10:40:04.951Z,97062.78
2022-10-14T10:42:39.831Z,97059.47
2022-10-14T10:45:15.995Z,97055.25
2022-10-14T10:47:50.535Z,97056.19
2022-10-14T10:50:34.109Z,97058.50
2022-10-14T10:53:11.470Z,97058.63
2022-10-14T10:58:30.909Z,97043.63
2022-10-14T11:01:02.848Z,97049.78
2022-10-14T11:03:48.885Z,97045.50
2022-10-14T11:06:43.404Z,97036.47
2022-10-14T11:09:35.147Z,97034.69
2022-10-14T11:12:13.557Z,97029.38
2022-10-14T11:14:56.548Z,97033.69
2022-10-14T11:17:32.039Z,97027.56
2022-10-14T11:20:06.388Z,97021.81
2022-10-14T11:22:52.244Z,97016.72
2022-10-14T11:25:26.955Z,97007.13
2022-10-14T11:28:00.820Z,96998.31
2022-10-14T11:30:38.147Z,96995.59
2022-10-14T11:33:25.070Z,96989.72
2022-10-14T11:36:01.401Z,96983.31
2022-10-14T11:38:40.916Z,96983.31
2022-10-14T11:41:14.346Z,96979.50
2022-10-14T11:43:46.055Z,96975.44
2022-10-14T11:46:15.515Z,96969.56
2022-10-14T11:48:46.394Z,96963.47
2022-10-14T11:51:19.710Z,96962.09
2022-10-14T11:53:56.900Z,96956.41
2022-10-14T11:56:30.588Z,96959.16
2022-10-14T11:59:00.971Z,96953.66
2022-10-14T12:01:34.174Z,96939.63
2022-10-14T12:04:10.939Z,96949.03
2022-10-14T12:06:44.626Z,96934.78
2022-10-14T12:09:17.866Z,96937.28
2022-10-14T12:11:47.827Z,96942.28
2022-10-14T12:14:20.366Z,96936.25
2022-10-14T12:16:49.600Z,96937.03
2022-10-14T12:19:23.151Z,96932.88
2022-10-14T12:21:55.411Z,96929.34
2022-10-14T12:24:30.642Z,96937.50
2022-10-14T12:26:59.781Z,96922.56
2022-10-14T12:29:31.294Z,96923.91
2022-10-14T12:32:20.755Z,96926.53
2022-10-14T12:34:50.082Z,96925.84
2022-10-14T12:37:54.291Z,96926.06
2022-10-14T12:40:28.585Z,96920.06
2022-10-14T12:42:59.839Z,96911.69
2022-10-14T12:45:29.642Z,96914.50
2022-10-14T12:48:07.527Z,96911.47
2022-10-14T12:50:39.316Z,96912.16
2022-10-14T12:53:15.601Z,96913.50
2022-10-14T12:55:49.491Z,96903.06
2022-10-14T12:58:25.609Z,96891.06
2022-10-14T13:00:59.616Z,96894.69
2022-10-14T13:03:29.234Z,96888.81
2022-10-14T13:06:29.771Z,96879.31
2022-10-14T13:09:40.621Z,96881.34
2022-10-14T13:12:42.052Z,96878.19
2022-10-14T13:15:48.742Z,96878.03
2022-10-14T13:18:36.333Z,96871.59
2022-10-14T13:21:05.581Z,96873.19
2022-10-14T13:23:42.500Z,96871.59
2022-10-14T13:26:30.084Z,96870.31
2022-10-14T13:29:12.974Z,96869.81
2022-10-14T13:31:47.289Z,96868.22
2022-10-14T13:34:22.782Z,96867.75
2022-10-14T13:37:03.073Z,96871.72
2022-10-14T13:39:33.663Z,96866.38
2022-10-14T13:42:02.413Z,96858.81
2022-10-14T13:44:34.110Z,96861.97
2022-10-14T13:47:02.598Z,96867.09
2022-10-14T13:49:35.574Z,96864.25
2022-10-14T13:52:05.572Z,96861.66
2022-10-14T13:54:33.801Z,96855.00
2022-10-14T13:57:35.047Z,96853.50
2022-10-14T14:00:39.172Z,96854.06
2022-10-14T14:02:44.392Z,96860.41
2022-10-14T14:05:21.073Z,96861.97
2022-10-14T14:10:46.837Z,96852.16
2022-10-14T14:13:26.113Z,96848.72
2022-10-14T14:15:56.445Z,96851.19
2022-10-14T14:18:38.174Z,96858.47
2022-10-14T14:21:18.096Z,96855.09
2022-10-14T14:23:52.796Z,96851.56
2022-10-14T14:26:21.547Z,96852.38
2022-10-14T14:28:50.015Z,96852.00
2022-10-14T14:31:21.073Z,96853.50
2022-10-14T14:33:49.141Z,96843.91
2022-10-14T14:36:27.475Z,96855.09
2022-10-14T14:39:03.000Z,96847.16
2022-10-14T14:41:33.091Z,96846.25
2022-10-14T14:44:25.612Z,96849.69
2022-10-14T14:46:58.281Z,96843.69
2022-10-14T14:49:28.630Z,96840.19
2022-10-14T14:51:59.074Z,96832.28
2022-10-14T14:54:28.787Z,96843.13
2022-10-14T14:57:04.186Z,96830.13
2022-10-14T14:59:35.465Z,96832.69
2022-10-14T15:02:13.447Z,96840.16
2022-10-14T15:04:43.434Z,96838.22
2022-10-14T15:07:21.002Z,96832.44
2022-10-14T15:09:51.553Z,96832.00
2022-10-14T15:12:22.209Z,96844.13
2022-10-14T15:14:51.617Z,96835.66
2022-10-14T15:17:29.258Z,96840.88
2022-10-14T15:19:59.946Z,96852.44
2022-10-14T15:22:35.722Z,96854.47
2022-10-14T15:25:09.592Z,96862.81
2022-10-14T15:27:53.589Z,96868.88
2022-10-14T15:30:31.799Z,96869.97
2022-10-14T15:33:02.809Z,96871.34
2022-10-14T15:35:31.203Z,96867.38
2022-10-14T15:37:59.234Z,96863.94
2022-10-14T15:40:31.428Z,96863.94
2022-10-14T15:43:00.030Z,96859.22
2022-10-14T15:45:28.143Z,96863.28
2022-10-14T15:47:58.802Z,96851.78
2022-10-14T15:50:28.413Z,96850.69
2022-10-14T15:52:57.155Z,96836.94
2022-10-14T15:55:27.019Z,96837.28
2022-10-14T15:57:55.124Z,96829.34
2022-10-14T16:00:24.715Z,96831.28
2022-10-14T16:02:55.801Z,96830.78
2022-10-14T16:05:23.936Z,96827.44
2022-10-14T16:07:53.322Z,96826.88
2022-10-14T16:10:23.150Z,96819.88
2022-10-14T16:12:51.787Z,96818.75
2022-10-14T16:15:32.703Z,96811.31
2022-10-14T16:18:01.815Z,96820.66
2022-10-14T16:20:30.773Z,96809.81
2022-10-14T16:23:04.280Z,96814.34
2022-10-14T16:25:38.739Z,96805.53
2022-10-14T16:28:10.046Z,96815.69
2022-10-14T16:30:40.181Z,96809.94
2022-10-14T16:33:08.692Z,96814.88
2022-10-14T16:35:36.720Z,96815.16
2022-10-14T16:38:06.126Z,96816.75
2022-10-14T16:40:36.766Z,96817.56
2022-10-14T16:43:07.054Z,96818.88
2022-10-14T16:45:35.068Z,96828.34
2022-10-14T16:48:03.138Z,96824.84
2022-10-14T16:50:31.137Z,96822.09
2022-10-14T16:53:25.003Z,96821.44
2022-10-14T16:55:58.777Z,96831.16
2022-10-14T16:58:27.958Z,96820.63
2022-10-14T17:00:56.054Z,96830.69
2022-10-14T17:03:24.087Z,96831.81
2022-10-14T17:05:58.389Z,96828.66
2022-10-14T17:08:26.346Z,96837.44
2022-10-14T17:10:59.590Z,96823.41
2022-10-14T17:13:27.793Z,96819.13
2022-10-14T17:15:59.963Z,96827.13
2022-10-14T17:18:33.681Z,96827.13
2022-10-14T17:21:02.931Z,96827.91
2022-10-14T17:23:31.997Z,96835.56
2022-10-14T17:26:01.653Z,96829.81
2022-10-14T17:28:30.194Z,96831.75
2022-10-14T17:30:58.801Z,96827.00
2022-10-14T17:33:26.787Z,96840.03
2022-10-14T17:35:58.308Z,96827.97
2022-10-14T17:38:26.474Z,96825.59
2022-10-14T17:40:54.576Z,96826.69
2022-10-14T17:43:24.604Z,96834.81
2022-10-14T17:45:52.620Z,96830.22
2022-10-14T17:48:21.826Z,96837.53
2022-10-14T17:50:49.836Z,96832.13
2022-10-14T17:53:17.902Z,96842.16
2022-10-14T17:55:45.938Z,96839.78
2022-10-14T17:58:14.052Z,96844.38
2022-10-14T18:00:43.489Z,96842.03
2022-10-14T18:03:11.631Z,96839.66
2022-10-14T18:05:43.975Z,96842.69
2022-10-14T18:08:14.664Z,96835.69
2022-10-14T18:10:43.069Z,96829.34
2022-10-14T18:13:11.212Z,96827.28
2022-10-14T18:15:39.299Z,96830.78
2022-10-14T18:18:09.319Z,96826.16
2022-10-14T18:20:37.412Z,96833.16
2022-10-14T18:23:07.561Z,96834.63
2022-10-14T18:25:36.973Z,96830.34
2022-10-14T18:28:05.284Z,96824.56
2022-10-14T18:30:33.306Z,96831.56
2022-10-14T18:33:01.292Z,96838.59
2022-10-14T18:35:30.675Z,96829.34
2022-10-14T18:37:58.674Z,96828.22
2022-10-14T18:40:26.718Z,96830.94
2022-10-14T18:42:58.100Z,96820.31
2022-10-14T18:45:26.121Z,96819.16
2022-10-14T18:47:54.177Z,96817.59
2022-10-14T18:50:22.192Z,96815.53
2022-10-14T18:52:51.648Z,96818.25
2022-10-14T18:55:19.700Z,96815.84
2022-10-14T18:57:47.716Z,96811.25
2022-10-14T19:00:16.497Z,96812.22
2022-10-14T19:02:44.584Z,96805.38
2022-10-14T19:05:12.776Z,96805.69
2022-10-14T19:07:40.833Z,96812.56
2022-10-14T19:10:10.986Z,96809.84
2022-10-14T19:12:45.107Z,96807.03
2022-10-14T19:15:13.230Z,96805.63
2022-10-14T19:17:42.844Z,96802.44
2022-10-14T19:20:12.245Z,96793.69
2022-10-14T19:22:44.773Z,96793.00
2022-10-14T19:25:14.215Z,96792.09
2022-10-14T19:27:42.224Z,96795.78
2022-10-14T19:30:11.481Z,96797.84
2022-10-14T19:32:39.519Z,96795.13
2022-10-14T19:35:07.620Z,96790.50
2022-10-14T19:37:35.678Z,96805.94
2022-10-14T19:40:03.778Z,96798.50
2022-10-14T19:42:33.238Z,96798.81
2022-10-14T19:45:01.392Z,96791.03
2022-10-14T19:47:29.432Z,96789.91
2022-10-14T19:49:57.569Z,96795.66
2022-10-14T19:52:25.646Z,96795.66
2022-10-14T19:54:53.676Z,96778.50
2022-10-14T19:57:23.214Z,96783.91
2022-10-14T19:59:52.763Z,96783.09
2022-10-14T20:02:20.749Z,96774.53
2022-10-14T20:05:17.087Z,96781.50
2022-10-14T20:07:45.134Z,96782.63
2022-10-14T20:10:13.605Z,96779.47
2022-10-14T20:12:41.593Z,96781.41
2022-10-14T20:15:11.768Z,96782.19
2022-10-14T20:17:39.795Z,96783.31
2022-10-14T20:20:09.044Z,96774.72
2022-10-14T20:22:37.106Z,96780.91
2022-10-14T20:25:05.708Z,96775.06
2022-10-14T20:27:33.967Z,96771.56
2022-10-14T20:30:02.065Z,96768.88
2022-10-14T20:32:31.419Z,96760.91
2022-10-14T20:34:59.529Z,96755.97
2022-10-14T20:37:28.262Z,96751.34
2022-10-14T20:39:56.483Z,96751.03
2022-10-14T20:42:24.660Z,96760.28
2022-10-14T20:44:52.655Z,96757.09
2022-10-14T20:47:21.053Z,96763.16
2022-10-14T20:49:50.617Z,96760.91
2022-10-14T20:52:18.593Z,96753.94
2022-10-14T20:54:46.595Z,96748.53
2022-10-14T20:57:14.630Z,96759.34
2022-10-14T20:59:42.750Z,96749.97
2022-10-14T21:02:16.710Z,96756.97
2022-10-14T21:04:47.794Z,96750.75
2022-10-14T21:07:18.007Z,96745.22
2022-10-14T21:09:46.066Z,96749.84
2022-10-14T21:12:14.667Z,96747.13
2022-10-14T21:14:42.686Z,96748.91
2022-10-14T21:17:10.720Z,96741.25
2022-10-14T21:19:38.804Z,96735.84
2022-10-14T21:22:06.835Z,96735.84
2022-10-14T21:24:36.357Z,96728.44
2022-10-14T21:27:04.412Z,96720.94
2022-10-14T21:29:32.407Z,96717.13
2022-10-14T21:32:02.208Z,96714.88
2022-10-14T21:34:30.672Z,96721.06
2022-10-14T21:36:59.021Z,96714.88
2022-10-14T21:39:27.051Z,96711.81
2022-10-14T21:41:56.423Z,96713.75
2022-10-14T21:44:24.544Z,96707.22
2022-10-14T21:46:52.518Z,96707.22
2022-10-14T21:49:20.539Z,96699.56
2022-10-14T21:51:48.604Z,96697.19
2022-10-14T21:54:17.042Z,96691.38
2022-10-14T21:56:45.093Z,96673.56
2022-10-14T21:59:14.516Z,96674.03
2022-10-14T22:01:42.568Z,96669.44
2022-10-14T22:04:11.236Z,96663.56
2022-10-14T22:06:39.586Z,96660.53
2022-10-14T22:09:08.591Z,96660.53
2022-10-14T22:11:38.671Z,96660.53
2022-10-14T22:14:08.915Z,96660.84
2022-10-14T22:16:39.168Z,96659.94
2022-10-14T22:19:08.014Z,96664.97
2022-10-14T22:21:37.595Z,96660.38
2022-10-14T22:26:40.403Z,96661.69
2022-10-14T22:29:11.577Z,96655.38
2022-10-14T22:31:40.980Z,96664.00
2022-10-14T22:34:11.193Z,96654.28
2022-10-14T22:36:39.320Z,96654.50
2022-10-14T22:39:09.117Z,96651.63
2022-10-14T22:41:37.229Z,96651.47
2022-10-14T22:44:06.514Z,96646.06
2022-10-14T22:46:35.879Z,96652.28
2022-10-14T22:49:05.359Z,96653.75
2022-10-14T22:51:35.102Z,96655.97
2022-10-14T22:54:03.203Z,96647.38
2022-10-14T22:56:32.036Z,96648.84
2022-10-14T22:59:01.563Z,96645.34
2022-10-14T23:01:29.909Z,96640.41
2022-10-14T23:03:59.240Z,96634.22
2022-10-14T23:06:29.401Z,96635.00
2022-10-14T23:08:57.688Z,96637.25
2022-10-14T23:11:26.434Z,96632.94
2022-10-14T23:13:54.816Z,96639.03
2022-10-14T23:16:24.580Z,96638.53
2022-10-14T23:18:53.515Z,96633.47
2022-10-14T23:21:23.561Z,96625.50
2022-10-14T23:23:53.541Z,96634.72
2022-10-14T23:26:22.997Z,96625.34
2022-10-14T23:28:52.385Z,96625.50
2022-10-14T23:31:22.311Z,96617.56
2022-10-14T23:33:52.217Z,96612.78
2022-10-14T23:36:21.273Z,96616.25
2022-10-14T23:38:49.511Z,96612.00
2022-10-14T23:41:19.145Z,96614.56
2022-10-14T23:43:47.116Z,96612.97
2022-10-14T23:46:15.515Z,96612.16
2022-10-14T23:48:47.967Z,96610.13
2022-10-14T23:51:48.653Z,96609.66
2022-10-14T23:54:16.888Z,96601.25
2022-10-14T23:56:46.264Z,96599.00
2022-10-14T23:59:14.453Z,96592.81
